aviador You're here:

HECA Decoded Metar

CAIRO in EGYPT
Report Time2018-01-16 07:00:00
UTC Time2018-01-16 07:28:04
Flight Rules ifr IFR
Wind050° at 03 kt
W.Decomp.*RWY 05: 3.0 kt HW 0.2 kt LCW
W.Rank050° ranks 10
Current wind is below 050° avg. (7.5)
Visibility4000 m
Phenomena:Mist
Clouds:N/A
Expected CloudBase > 1,600 ft AGL from Temp-Dew spread
CeilingNone
Temp14°C (ISA -1)
Dew Point10°C (77% RH)
AAT13.0°C
QNH1026 hPa
Density Alt-92 ft
Elevation243 ft
Report Wrong Elevation
Raw Report
METAR HECA 160700Z 05003KT 4000 BR NSC 14/10 Q1026 NOSIG=

Extra information for HECA:More info

Metar Taf Metar & Taf Last 4 Metars F.Rules Stats Wind Profile Meteogram Temp Stats Airport Information Weather charts Add Link Nearby VenuesMetar ALERT Operation Metar Decoded Social comments